Time;durP1;ratioP1;P1;durP2;ratioP2;P2;SDS_P1;SDS_P2;PMS_P1;PMS_P2;Temp;Humidity;BMP_temperature;BMP_pressure;BME280_temperature;BME280_humidity;BME280_pressure;Samples;Min_cycle;Max_cycle;Signal;HPM_P1;HPM_P2
2023/07/28 00:01:04;;;;;;;3.65;1.20;;;17.20;96.80;;;;;;4853350;29;20057;-91
2023/07/28 00:03:37;;;;;;;3.08;1.17;;;17.20;97.20;;;;;;4839651;29;20054;-91
2023/07/28 00:06:17;;;;;;;;;;;;;;;;;;;;;
2023/07/28 00:08:59;;;;;;;5.05;1.25;;;17.20;97.80;;;;;;4851488;29;20052;-92
2023/07/28 00:11:58;;;;;;;2.10;1.02;;;17.20;97.60;;;;;;4856464;29;20051;-91
2023/07/28 00:19:08;;;;;;;2.42;1.15;;;17.20;98.20;;;;;;4795221;29;20039;-90
2023/07/28 00:22:03;;;;;;;3.70;1.05;;;17.20;98.50;;;;;;4768502;29;20059;-91
2023/07/28 00:24:54;;;;;;;3.88;1.52;;;17.20;98.70;;;;;;4775177;29;20069;-91
2023/07/28 00:27:55;;;;;;;2.35;1.20;;;17.20;99.10;;;;;;4775297;29;20077;-91
2023/07/28 00:30:33;;;;;;;3.00;1.15;;;17.20;99.10;;;;;;4774095;29;20063;-89
2023/07/28 00:33:12;;;;;;;5.18;1.30;;;17.20;98.70;;;;;;4794687;29;20055;-92
2023/07/28 00:35:46;;;;;;;2.70;1.40;;;17.20;98.70;;;;;;4810728;29;20066;-91
2023/07/28 00:38:52;;;;;;;3.50;1.25;;;17.20;98.50;;;;;;4800788;29;20058;-91
2023/07/28 00:41:56;;;;;;;4.50;1.30;;;17.20;98.20;;;;;;4809912;29;20522;-89
2023/07/28 00:44:55;;;;;;;2.55;1.10;;;17.20;97.80;;;;;;4807713;29;20066;-90
2023/07/28 00:47:32;;;;;;;3.90;1.20;;;17.20;97.60;;;;;;4797706;29;20058;-91
2023/07/28 00:50:11;;;;;;;4.22;1.20;;;17.20;97.50;;;;;;4811749;29;20064;-90
2023/07/28 00:53:05;;;;;;;2.90;1.02;;;17.20;97.50;;;;;;4809442;29;20534;-92
2023/07/28 00:55:45;;;;;;;3.08;0.93;;;17.10;97.40;;;;;;4829003;29;20441;-91
2023/07/28 00:58:21;;;;;;;;;;;17.10;97.60;;;;;;4847674;29;20054;-91
2023/07/28 01:01:13;;;;;;;2.15;0.75;;;17.10;97.40;;;;;;4829940;29;19967;-91
2023/07/28 01:04:33;;;;;;;3.30;1.02;;;17.20;97.20;;;;;;4763598;30;20072;-91
2023/07/28 01:07:32;;;;;;;;;;;17.10;97.00;;;;;;4747921;30;20058;-94
2023/07/28 01:11:05;;;;;;;3.88;1.65;;;17.10;96.90;;;;;;4729154;30;19926;-91
2023/07/28 01:18:15;;;;;;;2.58;0.90;;;17.00;96.80;;;;;;4741657;30;20056;-92
2023/07/28 01:21:34;;;;;;;3.78;1.20;;;17.10;96.70;;;;;;4791041;29;20057;-91
2023/07/28 01:24:38;;;;;;;2.58;1.00;;;17.10;96.80;;;;;;4855821;29;20053;-92
2023/07/28 01:27:42;;;;;;;2.13;0.75;;;17.10;96.80;;;;;;4830250;29;20058;-92
2023/07/28 01:30:27;;;;;;;;;;;;;;;;;;;;;
2023/07/28 01:37:50;;;;;;;;;;;;;;;;;;;;;
2023/07/28 01:41:06;;;;;;;3.55;0.90;;;17.10;97.00;;;;;;4867509;29;20060;-91
2023/07/28 01:45:08;;;;;;;;;;;;;;;;;;;;;
2023/07/28 01:48:44;;;;;;;;;;;;;;;;;;;;;
2023/07/28 01:57:04;;;;;;;;;;;;;;;;;;;;;
2023/07/28 02:00:47;;;;;;;;;;;;;;;;;;;;;
2023/07/28 02:29:07;;;;;;;3.90;1.42;;;17.10;97.60;;;;;;5431915;22;17889182;-91
2023/07/28 02:32:57;;;;;;;;;;;;;;;;;;;;;
2023/07/28 02:36:29;;;;;;;2.83;1.33;;;17.20;97.10;;;;;;5928241;24;20370;-90
2023/07/28 02:39:04;;;;;;;4.63;1.63;;;17.10;97.10;;;;;;5959375;24;20042;-90
2023/07/28 02:41:31;;;;;;;2.58;1.20;;;17.10;97.30;;;;;;5960056;24;20028;-90
2023/07/28 02:44:01;;;;;;;4.10;1.10;;;17.10;97.30;;;;;;5960361;24;20035;-90
2023/07/28 02:46:34;;;;;;;4.25;1.20;;;17.10;97.30;;;;;;5959597;24;20024;-92
2023/07/28 03:00:11;;;;;;;;;;;;;;;;;;;;;
2023/07/28 04:55:15;;;;;;;2.15;1.30;;;17.50;98.40;;;;;;6191584;22;20075;31
2023/07/28 05:02:51;;;;;;;7.10;1.10;;;17.50;98.30;;;;;;6227412;22;20027;-80
2023/07/28 05:05:19;;;;;;;2.15;1.10;;;17.60;98.00;;;;;;6189713;23;20444;-80
2023/07/28 05:07:46;;;;;;;3.88;1.08;;;17.70;98.00;;;;;;6226172;22;20005;-80
2023/07/28 05:10:15;;;;;;;2.10;0.85;;;17.80;98.00;;;;;;6207220;23;20398;-80
2023/07/28 05:12:42;;;;;;;3.90;1.10;;;17.90;97.60;;;;;;6201642;23;20051;-80
2023/07/28 05:15:16;;;;;;;3.58;1.02;;;18.00;97.30;;;;;;6194778;23;20030;-81
2023/07/28 05:17:46;;;;;;;3.92;1.15;;;18.00;97.00;;;;;;6206708;23;20027;-80
2023/07/28 05:20:39;;;;;;;4.63;1.10;;;18.10;97.10;;;;;;6223493;22;20008;-80
2023/07/28 05:26:28;;;;;;;2.75;1.13;;;18.20;97.00;;;;;;6243118;22;20060;-81
2023/07/28 05:28:56;;;;;;;3.90;1.35;;;18.20;97.10;;;;;;6227791;23;20482;-81
2023/07/28 05:31:24;;;;;;;4.70;1.17;;;18.20;97.00;;;;;;6212087;23;20043;-81
2023/07/28 05:33:53;;;;;;;5.95;1.30;;;18.20;96.90;;;;;;6235513;23;20043;-81
2023/07/28 05:36:21;;;;;;;2.83;1.45;;;18.20;97.10;;;;;;6196498;23;20074;-81
2023/07/28 05:38:49;;;;;;;3.88;1.50;;;18.30;97.10;;;;;;6204125;23;20027;-81
2023/07/28 05:41:17;;;;;;;4.13;1.35;;;18.40;96.60;;;;;;6201904;23;20090;-81
2023/07/28 05:43:45;;;;;;;3.25;1.00;;;18.60;96.20;;;;;;6214996;23;20020;-79
2023/07/28 05:46:15;;;;;;;2.75;1.30;;;18.70;95.80;;;;;;6214659;23;20504;-81
2023/07/28 05:48:43;;;;;;;6.50;1.20;;;18.70;96.20;;;;;;6221911;23;20024;-79
2023/07/28 05:51:17;;;;;;;5.63;1.48;;;18.80;96.10;;;;;;6232529;22;20011;-81
2023/07/28 05:53:44;;;;;;;3.85;1.10;;;18.80;95.80;;;;;;6224395;23;20024;-81
2023/07/28 05:56:12;;;;;;;3.33;1.10;;;18.80;96.10;;;;;;6221412;23;20023;-78
2023/07/28 05:58:42;;;;;;;2.33;1.00;;;18.80;95.90;;;;;;6242910;22;20027;-81
2023/07/28 06:01:12;;;;;;;3.38;1.15;;;18.80;95.80;;;;;;6199099;23;20024;-80
2023/07/28 06:04:08;;;;;;;2.90;1.20;;;18.80;96.10;;;;;;6223736;23;20028;-80
2023/07/28 06:06:41;;;;;;;3.10;1.15;;;18.80;96.30;;;;;;6190895;23;20047;-80
2023/07/28 06:09:14;;;;;;;3.85;0.98;;;18.80;96.40;;;;;;6214415;22;20027;-81
2023/07/28 06:11:44;;;;;;;2.60;1.00;;;18.80;96.30;;;;;;6226294;22;20016;-80
2023/07/28 06:14:11;;;;;;;2.42;0.98;;;18.90;96.40;;;;;;6215630;23;20054;-80
2023/07/28 06:16:45;;;;;;;4.25;1.30;;;18.90;96.80;;;;;;6195182;22;20015;31
2023/07/28 06:19:23;;;;;;;2.47;1.10;;;19.00;96.80;;;;;;6215085;22;20073;-80
2023/07/28 06:21:52;;;;;;;3.33;1.23;;;19.20;96.50;;;;;;6228231;22;20356;-80
2023/07/28 06:24:28;;;;;;;3.53;1.10;;;19.50;96.30;;;;;;6217381;22;20016;-80
2023/07/28 06:26:58;;;;;;;3.08;1.00;;;19.70;95.70;;;;;;6185939;23;20058;-79
2023/07/28 06:29:26;;;;;;;2.13;1.20;;;19.80;95.40;;;;;;6207298;23;20012;-80
2023/07/28 06:31:54;;;;;;;4.05;1.00;;;19.90;94.40;;;;;;6218487;23;20066;-79
2023/07/28 06:34:21;;;;;;;5.93;0.90;;;19.90;94.40;;;;;;6182192;23;20052;-79
2023/07/28 06:36:49;;;;;;;2.75;1.20;;;19.90;94.10;;;;;;6183205;23;20020;-80
2023/07/28 06:39:16;;;;;;;3.38;1.23;;;19.90;93.50;;;;;;6185852;23;20024;-80
2023/07/28 06:41:45;;;;;;;2.90;0.77;;;20.10;94.10;;;;;;6206133;23;20028;-80
2023/07/28 06:44:13;;;;;;;2.67;1.30;;;20.20;93.40;;;;;;6205697;23;20051;-80
2023/07/28 06:46:41;;;;;;;2.17;0.77;;;20.30;93.00;;;;;;6182550;23;20023;-77
2023/07/28 06:49:11;;;;;;;3.20;0.82;;;20.50;91.80;;;;;;6209057;23;20027;-80
2023/07/28 06:51:39;;;;;;;3.00;1.10;;;20.70;91.50;;;;;;6211922;23;20516;-79
2023/07/28 06:54:15;;;;;;;3.47;1.02;;;20.90;91.80;;;;;;6207968;23;20431;-80
2023/07/28 06:56:49;;;;;;;2.55;0.70;;;20.90;90.80;;;;;;6222183;23;20402;-80
2023/07/28 07:06:17;;;;;;;4.43;1.02;;;22.00;85.60;;;;;;6180145;23;20304;-79
2023/07/28 07:08:45;;;;;;;3.88;1.00;;;22.30;84.20;;;;;;6151341;23;20080;-80
2023/07/28 07:11:15;;;;;;;2.30;0.75;;;22.20;82.30;;;;;;6130140;23;20504;-80
2023/07/28 07:13:45;;;;;;;3.17;1.40;;;22.00;83.10;;;;;;6209131;22;20121;-80
2023/07/28 07:16:16;;;;;;;2.20;0.90;;;21.90;85.80;;;;;;6217937;23;20024;-78
2023/07/28 07:18:51;;;;;;;1.50;0.70;;;22.10;83.70;;;;;;6212922;23;20024;-79
2023/07/28 07:21:20;;;;;;;3.63;0.70;;;22.50;83.50;;;;;;6214607;23;20421;-79
2023/07/28 07:23:47;;;;;;;3.08;0.90;;;22.80;80.40;;;;;;6235787;23;20016;-80
2023/07/28 07:26:27;;;;;;;2.75;0.85;;;22.70;79.30;;;;;;6190213;23;20027;-79
2023/07/28 07:28:54;;;;;;;5.55;0.70;;;22.80;80.30;;;;;;6213636;23;20054;-79
2023/07/28 07:31:43;;;;;;;5.32;1.02;;;22.90;80.30;;;;;;6144582;23;20054;-80
2023/07/28 07:34:10;;;;;;;4.15;1.00;;;23.20;78.60;;;;;;6120871;23;20022;-79
2023/07/28 07:36:39;;;;;;;3.95;0.77;;;23.40;78.50;;;;;;6128508;23;20029;-80
2023/07/28 07:39:06;;;;;;;3.60;0.90;;;23.80;78.60;;;;;;6125366;23;20025;-79
2023/07/28 07:41:37;;;;;;;2.13;0.60;;;23.90;76.60;;;;;;6099851;23;20132;-80
2023/07/28 07:44:04;;;;;;;2.70;0.77;;;23.80;75.40;;;;;;6172958;23;20051;-79
2023/07/28 07:46:31;;;;;;;2.53;0.80;;;23.50;75.90;;;;;;6217973;23;20427;-79
2023/07/28 07:49:13;;;;;;;3.33;0.88;;;23.50;76.60;;;;;;6239981;22;20026;-79
2023/07/28 07:51:40;;;;;;;4.70;0.88;;;23.80;76.50;;;;;;6209439;23;20048;-80
2023/07/28 07:54:07;;;;;;;2.42;0.70;;;24.00;74.70;;;;;;6192879;23;20452;-79
2023/07/28 07:56:39;;;;;;;3.42;0.98;;;24.10;74.30;;;;;;6216549;23;20431;-80
2023/07/28 07:59:08;;;;;;;2.75;0.70;;;24.30;75.40;;;;;;6221761;22;20004;-82
2023/07/28 08:01:38;;;;;;;2.92;0.60;;;24.20;74.40;;;;;;6242572;23;20087;-80
2023/07/28 08:04:08;;;;;;;2.45;0.90;;;24.10;74.10;;;;;;6193419;23;20031;-80
2023/07/28 08:06:35;;;;;;;3.13;0.60;;;23.80;74.40;;;;;;6212973;23;20016;-79
2023/07/28 08:09:03;;;;;;;2.00;0.80;;;23.70;73.70;;;;;;6218447;23;20024;-79
2023/07/28 08:11:30;;;;;;;1.33;0.50;;;23.70;74.10;;;;;;6251280;22;20001;-80
2023/07/28 08:13:57;;;;;;;1.90;0.60;;;24.10;75.60;;;;;;6187975;23;20020;-80
2023/07/28 08:16:25;;;;;;;5.25;0.90;;;24.50;74.10;;;;;;6183705;23;20107;-80
2023/07/28 08:18:53;;;;;;;3.40;0.70;;;24.90;72.20;;;;;;6220837;23;20024;-79
2023/07/28 08:21:24;;;;;;;2.47;0.52;;;25.20;71.50;;;;;;6216377;23;20046;-82
2023/07/28 08:23:51;;;;;;;2.40;0.65;;;25.60;71.00;;;;;;6210432;23;20043;-79
2023/07/28 08:26:24;;;;;;;4.18;0.90;;;25.70;70.50;;;;;;6216362;23;20016;-81
2023/07/28 08:28:52;;;;;;;2.85;0.80;;;25.60;69.90;;;;;;6209498;23;20024;-81
2023/07/28 08:31:19;;;;;;;1.77;0.70;;;25.30;69.50;;;;;;6209806;23;20016;-78
2023/07/28 08:33:46;;;;;;;2.97;0.95;;;25.00;70.40;;;;;;6210176;23;20438;-79
2023/07/28 08:36:14;;;;;;;2.50;0.68;;;24.70;70.00;;;;;;6240835;23;20484;-82
2023/07/28 08:38:41;;;;;;;1.55;0.40;;;24.70;71.10;;;;;;6208670;23;20016;-79
2023/07/28 08:41:08;;;;;;;2.80;0.75;;;24.70;69.90;;;;;;6233313;23;20107;-81
2023/07/28 08:43:35;;;;;;;2.00;0.50;;;24.80;69.70;;;;;;6185092;23;20024;-81
2023/07/28 08:46:03;;;;;;;1.15;0.40;;;24.60;69.60;;;;;;6205450;23;20016;-80
2023/07/28 08:48:31;;;;;;;1.45;0.55;;;24.60;69.50;;;;;;6208205;23;20019;-79
2023/07/28 08:51:04;;;;;;;3.33;0.40;;;24.50;69.20;;;;;;6238694;23;20020;-82
2023/07/28 08:53:31;;;;;;;2.63;0.70;;;24.90;70.50;;;;;;6187571;23;20363;-80
2023/07/28 08:55:58;;;;;;;1.25;0.38;;;25.30;69.50;;;;;;6210865;23;20082;-80
2023/07/28 08:58:31;;;;;;;1.05;0.40;;;25.30;68.30;;;;;;6161356;23;20023;-82
2023/07/28 09:01:01;;;;;;;2.28;0.80;;;25.10;68.20;;;;;;6237300;23;20336;-81
2023/07/28 09:03:33;;;;;;;5.30;0.75;;;25.30;69.10;;;;;;6199591;23;20432;-82
2023/07/28 09:06:03;;;;;;;3.88;0.73;;;25.20;67.90;;;;;;6178798;23;20055;-82
2023/07/28 09:08:31;;;;;;;1.85;0.45;;;25.40;68.20;;;;;;6151617;23;20028;-81
2023/07/28 09:11:06;;;;;;;0.95;0.40;;;25.40;68.50;;;;;;6152425;23;20083;-81
2023/07/28 09:13:37;;;;;;;2.20;0.50;;;25.50;68.60;;;;;;6149872;23;20044;-82
2023/07/28 09:16:24;;;;;;;1.08;0.45;;;25.50;68.50;;;;;;6151352;23;20020;-82
2023/07/28 09:19:05;;;;;;;2.55;0.50;;;25.40;67.80;;;;;;6178225;23;20016;-81
2023/07/28 09:21:33;;;;;;;1.30;0.30;;;25.40;68.60;;;;;;6177887;23;20024;-81
2023/07/28 09:24:03;;;;;;;1.48;0.50;;;25.40;68.00;;;;;;6176912;23;20016;-82
2023/07/28 09:26:41;;;;;;;1.10;0.50;;;25.40;68.90;;;;;;6150371;23;20470;-81
2023/07/28 09:29:21;;;;;;;2.83;0.50;;;25.40;69.90;;;;;;6177458;23;20024;-84
2023/07/28 09:31:50;;;;;;;1.70;0.60;;;25.40;69.00;;;;;;6202682;23;20080;-83
2023/07/28 09:34:48;;;;;;;3.13;0.40;;;25.70;70.00;;;;;;6210944;23;20341;-83
2023/07/28 09:37:18;;;;;;;2.72;0.50;;;25.80;69.50;;;;;;6107346;23;20137;-81
2023/07/28 09:39:47;;;;;;;2.60;0.77;;;25.60;68.40;;;;;;6118437;23;20157;-81
2023/07/28 09:42:14;;;;;;;0.90;0.50;;;25.70;69.30;;;;;;6118011;23;20224;-81
2023/07/28 09:44:41;;;;;;;1.55;0.50;;;25.80;69.50;;;;;;6117782;23;20068;-81
2023/07/28 09:47:09;;;;;;;1.48;0.40;;;25.80;69.10;;;;;;6141874;23;20026;-82
2023/07/28 09:49:42;;;;;;;1.30;0.47;;;25.90;70.20;;;;;;6119454;23;20136;-82
2023/07/28 09:52:10;;;;;;;1.75;0.57;;;26.00;69.90;;;;;;6117842;23;20733;-81
2023/07/28 09:54:43;;;;;;;1.70;0.60;;;26.10;69.50;;;;;;6116799;23;20064;-82
2023/07/28 09:57:14;;;;;;;0.60;0.50;;;26.00;69.20;;;;;;6117134;23;20017;-81
2023/07/28 09:59:42;;;;;;;1.73;0.40;;;26.20;69.80;;;;;;6089166;23;20025;-83
2023/07/28 10:02:10;;;;;;;2.45;0.50;;;26.20;68.30;;;;;;6117107;23;20461;-80
2023/07/28 10:04:43;;;;;;;1.27;0.43;;;26.10;69.60;;;;;;6116230;23;20076;-82
2023/07/28 10:07:12;;;;;;;1.63;0.40;;;26.00;68.90;;;;;;6115965;23;20057;-81
2023/07/28 10:09:40;;;;;;;1.58;0.40;;;26.10;69.50;;;;;;6116657;23;20022;-80
2023/07/28 10:12:18;;;;;;;2.28;0.55;;;26.00;68.70;;;;;;6115716;23;20533;-82
2023/07/28 10:14:46;;;;;;;0.90;0.40;;;26.10;69.80;;;;;;6142256;23;20159;-83
2023/07/28 10:17:17;;;;;;;2.22;0.40;;;26.20;69.50;;;;;;6114354;23;20028;-81
2023/07/28 10:19:44;;;;;;;3.22;0.40;;;26.30;69.70;;;;;;6116466;23;20025;-83
2023/07/28 10:22:12;;;;;;;1.70;0.55;;;26.20;69.20;;;;;;6197013;23;20541;-82
2023/07/28 10:25:10;;;;;;;1.92;0.50;;;26.30;69.50;;;;;;6191091;23;20020;-80
2023/07/28 10:27:47;;;;;;;2.88;0.40;;;26.30;69.00;;;;;;6209695;23;20031;-83
2023/07/28 10:30:15;;;;;;;4.40;0.90;;;26.30;69.00;;;;;;6212371;23;20024;-80
2023/07/28 10:32:50;;;;;;;2.10;0.50;;;26.30;69.50;;;;;;6212223;23;20128;-83
2023/07/28 10:35:23;;;;;;;2.13;0.45;;;26.50;68.80;;;;;;6210577;23;20449;-81
2023/07/28 10:37:50;;;;;;;1.58;0.50;;;26.60;69.20;;;;;;6207260;23;20024;-80
2023/07/28 10:40:31;;;;;;;2.63;0.63;;;26.50;69.70;;;;;;6181277;23;20023;-81
2023/07/28 10:42:59;;;;;;;1.63;0.40;;;26.50;69.00;;;;;;6184163;23;20390;-81
2023/07/28 10:45:28;;;;;;;1.75;0.55;;;26.50;69.00;;;;;;6207398;23;20075;-82
2023/07/28 10:47:59;;;;;;;2.45;0.60;;;26.70;69.20;;;;;;6208097;23;20250;-82
2023/07/28 10:50:30;;;;;;;2.38;0.60;;;26.80;69.60;;;;;;6206876;23;20016;-83
2023/07/28 10:52:58;;;;;;;1.48;0.55;;;26.60;68.50;;;;;;6199166;23;20363;-83
2023/07/28 10:55:27;;;;;;;2.22;0.50;;;26.70;69.10;;;;;;6183038;23;20102;-82
2023/07/28 10:57:55;;;;;;;1.98;0.63;;;26.70;69.00;;;;;;6185587;23;20020;-82
2023/07/28 11:00:23;;;;;;;1.50;0.80;;;26.70;69.20;;;;;;6200698;23;20078;-80
2023/07/28 11:02:54;;;;;;;3.78;0.70;;;26.80;68.70;;;;;;6176443;23;20123;-83
2023/07/28 11:05:24;;;;;;;2.33;0.82;;;26.80;69.40;;;;;;6198724;23;20026;-80
2023/07/28 11:07:56;;;;;;;1.45;0.57;;;26.80;69.00;;;;;;6178380;23;20024;-80
2023/07/28 11:10:24;;;;;;;4.38;0.80;;;26.80;69.30;;;;;;6205716;23;20355;-82
2023/07/28 11:12:52;;;;;;;1.77;0.65;;;27.00;70.80;;;;;;6184163;23;20408;-83
2023/07/28 11:15:19;;;;;;;2.25;0.68;;;27.10;69.90;;;;;;6207595;23;20024;-81
2023/07/28 11:17:49;;;;;;;1.85;0.82;;;27.10;69.20;;;;;;6208516;23;20024;-81
2023/07/28 11:20:30;;;;;;;0.90;0.55;;;27.10;69.70;;;;;;6180315;23;20131;-84
2023/07/28 11:22:59;;;;;;;1.65;0.70;;;27.20;69.70;;;;;;6208795;23;20028;-82
2023/07/28 11:25:28;;;;;;;4.03;0.63;;;27.20;69.10;;;;;;6208576;23;20071;-82
2023/07/28 11:27:55;;;;;;;2.15;0.50;;;27.20;70.00;;;;;;6181915;23;20474;-84
2023/07/28 11:30:24;;;;;;;3.08;0.52;;;27.30;70.10;;;;;;6205437;23;20517;-84
2023/07/28 11:32:52;;;;;;;1.58;0.52;;;27.40;70.00;;;;;;6206169;23;20468;-81
2023/07/28 11:35:22;;;;;;;5.20;0.70;;;27.40;69.20;;;;;;6182223;23;20427;-84
2023/07/28 11:37:52;;;;;;;2.38;0.50;;;27.40;69.70;;;;;;6179839;23;20531;-83
2023/07/28 11:40:21;;;;;;;1.23;0.40;;;27.50;69.10;;;;;;6205959;23;20020;-81
2023/07/28 11:42:54;;;;;;;1.70;0.45;;;27.60;69.40;;;;;;6205675;23;20408;-82
2023/07/28 11:45:22;;;;;;;1.65;0.50;;;27.70;69.30;;;;;;6208556;23;20068;-82
2023/07/28 11:48:05;;;;;;;1.52;0.50;;;27.80;68.90;;;;;;6182759;23;20028;-84
2023/07/28 11:50:39;;;;;;;1.15;0.63;;;27.70;69.40;;;;;;6207179;23;20091;-83
2023/07/28 11:53:07;;;;;;;1.73;0.50;;;27.80;69.80;;;;;;6204551;23;20047;-82
2023/07/28 11:55:36;;;;;;;4.10;0.30;;;27.80;68.20;;;;;;6204367;23;20684;-79
2023/07/28 11:58:07;;;;;;;3.35;0.70;;;27.70;68.30;;;;;;6178183;22;20352;-83
2023/07/28 12:00:37;;;;;;;1.50;0.43;;;27.80;69.90;;;;;;6205810;23;20070;-81
2023/07/28 12:03:10;;;;;;;1.10;0.50;;;27.90;69.50;;;;;;6204797;23;20020;-82
2023/07/28 12:05:58;;;;;;;0.90;0.47;;;27.90;69.20;;;;;;6202998;23;20364;-82
2023/07/28 12:08:40;;;;;;;1.00;0.50;;;27.90;69.80;;;;;;6185178;23;20024;-80
2023/07/28 12:11:16;;;;;;;1.83;0.73;;;27.90;69.50;;;;;;6203003;23;20134;-82
2023/07/28 12:13:50;;;;;;;2.97;0.55;;;27.70;68.20;;;;;;6205256;23;20106;-83
2023/07/28 12:16:47;;;;;;;2.40;0.73;;;27.70;68.60;;;;;;6204491;23;20020;-84
2023/07/28 12:19:17;;;;;;;1.38;0.65;;;27.80;69.50;;;;;;6179776;23;20024;-83
2023/07/28 12:21:45;;;;;;;1.17;0.30;;;27.90;69.40;;;;;;6206455;23;20054;-83
2023/07/28 12:24:12;;;;;;;3.65;0.47;;;27.80;69.80;;;;;;6204507;23;20023;-84
2023/07/28 12:26:40;;;;;;;1.65;0.55;;;27.80;70.10;;;;;;6205356;23;20020;-82
2023/07/28 12:29:07;;;;;;;1.52;0.30;;;27.80;69.70;;;;;;6226143;23;20024;-83
2023/07/28 12:31:37;;;;;;;2.78;0.68;;;27.80;70.20;;;;;;6203749;23;20023;-83
2023/07/28 12:34:07;;;;;;;0.85;0.40;;;27.80;70.10;;;;;;6204676;23;20030;-83
2023/07/28 12:36:34;;;;;;;2.25;0.65;;;27.90;69.90;;;;;;6179521;23;20111;-81
2023/07/28 12:39:05;;;;;;;2.80;0.70;;;28.10;70.80;;;;;;6206356;23;20453;-84
2023/07/28 12:41:35;;;;;;;1.35;0.70;;;28.10;70.50;;;;;;6206035;23;20110;-84
2023/07/28 12:44:05;;;;;;;2.45;0.47;;;28.20;69.20;;;;;;6204639;23;20020;-82
2023/07/28 12:46:33;;;;;;;1.73;0.70;;;28.30;69.70;;;;;;6204565;23;20027;-82
2023/07/28 12:49:00;;;;;;;1.88;0.47;;;28.10;69.40;;;;;;6203664;23;20026;-82
2023/07/28 12:51:28;;;;;;;3.90;0.52;;;28.20;69.00;;;;;;6174483;23;20179;-83
2023/07/28 12:53:57;;;;;;;1.95;0.70;;;28.20;69.50;;;;;;6201804;23;20355;-82
2023/07/28 12:56:25;;;;;;;3.00;0.40;;;28.20;68.90;;;;;;6179895;23;20028;-83
2023/07/28 12:58:55;;;;;;;1.48;0.40;;;28.30;68.80;;;;;;6206544;23;20020;-79
2023/07/28 13:01:25;;;;;;;1.88;0.60;;;28.30;66.90;;;;;;6206409;23;20020;-82
2023/07/28 13:03:53;;;;;;;1.65;0.60;;;28.20;68.70;;;;;;6207620;23;20020;-82
2023/07/28 13:06:21;;;;;;;2.17;0.60;;;28.30;68.50;;;;;;6181953;23;20024;-82
2023/07/28 13:08:48;;;;;;;1.15;0.70;;;28.40;69.60;;;;;;6184071;23;20491;-82
2023/07/28 13:11:19;;;;;;;1.55;0.60;;;28.30;69.10;;;;;;6183917;23;20032;-82
2023/07/28 13:13:46;;;;;;;1.55;0.60;;;28.20;69.60;;;;;;6181519;23;20020;-80
2023/07/28 13:16:13;;;;;;;1.55;0.50;;;28.10;68.60;;;;;;6206022;23;20052;-82
2023/07/28 13:18:43;;;;;;;2.63;0.60;;;28.10;69.30;;;;;;6207275;23;20024;-82
2023/07/28 13:21:10;;;;;;;2.30;0.68;;;28.10;68.30;;;;;;6210734;23;20423;-83
2023/07/28 13:23:39;;;;;;;1.45;0.65;;;28.10;68.20;;;;;;6184491;23;20028;-82
2023/07/28 13:26:06;;;;;;;2.10;0.50;;;28.20;69.40;;;;;;6207081;23;20476;-82
2023/07/28 13:28:34;;;;;;;1.45;0.60;;;28.20;69.00;;;;;;6181441;23;20028;-83
2023/07/28 13:31:04;;;;;;;1.98;0.70;;;28.30;69.30;;;;;;6182284;23;20027;-81
2023/07/28 13:33:33;;;;;;;4.65;0.43;;;28.40;68.20;;;;;;6182943;23;20020;-82
2023/07/28 13:36:03;;;;;;;2.85;0.68;;;28.40;69.10;;;;;;6182379;23;20024;-80
2023/07/28 13:38:31;;;;;;;2.80;0.55;;;28.40;68.20;;;;;;6185450;23;20213;-82
2023/07/28 13:40:58;;;;;;;1.85;0.50;;;28.40;68.20;;;;;;6185215;23;20035;-82
2023/07/28 13:43:25;;;;;;;1.85;0.57;;;28.40;68.40;;;;;;6208199;23;20059;-82
2023/07/28 13:45:52;;;;;;;1.55;0.70;;;28.30;68.60;;;;;;6186134;23;20055;-83
2023/07/28 13:48:20;;;;;;;2.22;0.57;;;28.20;68.80;;;;;;6211149;23;20795;-82
2023/07/28 13:50:50;;;;;;;2.85;0.40;;;28.10;69.20;;;;;;6209541;23;20031;-82
2023/07/28 13:53:23;;;;;;;1.88;0.50;;;28.00;68.90;;;;;;6212992;23;20016;-81
2023/07/28 13:55:55;;;;;;;1.30;0.40;;;27.90;68.80;;;;;;6212642;23;20175;-82
2023/07/28 13:58:24;;;;;;;1.15;0.40;;;27.80;69.00;;;;;;6188408;22;20023;-81
2023/07/28 14:00:51;;;;;;;2.88;0.43;;;27.70;69.00;;;;;;6213984;23;20024;-82
2023/07/28 14:03:18;;;;;;;1.15;0.40;;;27.60;70.00;;;;;;6208393;23;20093;-81
2023/07/28 14:05:46;;;;;;;0.85;0.40;;;27.50;69.40;;;;;;6184012;23;20534;-83
2023/07/28 14:08:14;;;;;;;3.28;0.50;;;27.40;69.20;;;;;;6182551;23;20030;-82
2023/07/28 14:10:45;;;;;;;2.45;0.40;;;27.40;69.70;;;;;;6186482;23;20051;-83
2023/07/28 14:13:13;;;;;;;3.13;1.45;;;27.30;70.20;;;;;;6211270;23;20078;-81
2023/07/28 14:15:40;;;;;;;2.40;0.60;;;27.40;70.40;;;;;;6207312;23;20418;-82
2023/07/28 14:18:07;;;;;;;1.23;0.40;;;27.40;70.50;;;;;;6209072;23;20020;-83
2023/07/28 14:20:35;;;;;;;1.75;0.45;;;27.50;71.10;;;;;;6185112;23;20390;-85
2023/07/28 14:23:24;;;;;;;2.47;0.60;;;27.50;70.70;;;;;;6185430;23;20020;-83
2023/07/28 14:25:52;;;;;;;1.52;0.40;;;27.60;70.70;;;;;;6209405;23;20115;-82
2023/07/28 14:28:20;;;;;;;2.55;0.60;;;27.70;70.40;;;;;;6209231;23;20027;-85
2023/07/28 14:30:48;;;;;;;1.80;0.47;;;27.90;70.40;;;;;;6186161;23;20027;-84
2023/07/28 14:33:16;;;;;;;0.50;0.35;;;27.80;70.10;;;;;;6214313;23;20391;-83
2023/07/28 14:35:45;;;;;;;1.30;0.70;;;27.80;69.60;;;;;;6215538;23;20016;-84
2023/07/28 14:38:12;;;;;;;1.23;0.50;;;28.00;70.30;;;;;;6213950;23;20020;-84
2023/07/28 14:40:40;;;;;;;2.60;0.70;;;28.10;69.90;;;;;;6213191;23;20020;-83
2023/07/28 14:43:07;;;;;;;0.90;0.40;;;27.90;70.00;;;;;;6190488;23;20020;-83
2023/07/28 14:45:34;;;;;;;1.00;0.50;;;27.80;69.50;;;;;;6210900;23;20078;-82
2023/07/28 14:48:02;;;;;;;2.08;0.63;;;28.00;69.30;;;;;;6190724;23;20078;-81
2023/07/28 14:50:30;;;;;;;1.95;0.60;;;27.90;69.60;;;;;;6186827;23;20031;-83
2023/07/28 14:53:00;;;;;;;4.03;0.60;;;27.80;69.30;;;;;;6212007;23;20424;-84
2023/07/28 14:55:27;;;;;;;1.00;0.52;;;27.80;69.10;;;;;;6212547;23;20079;-81
2023/07/28 14:57:55;;;;;;;1.80;0.50;;;27.80;68.90;;;;;;6188232;23;20338;-81
2023/07/28 15:00:22;;;;;;;2.05;0.60;;;27.70;69.10;;;;;;6237067;23;20020;-84
2023/07/28 15:02:49;;;;;;;2.95;0.50;;;27.70;69.10;;;;;;6237221;23;20020;-82
2023/07/28 15:05:17;;;;;;;2.17;0.55;;;27.60;69.60;;;;;;6185503;23;20067;-84
2023/07/28 15:07:45;;;;;;;1.73;0.43;;;27.60;69.10;;;;;;6214812;23;20027;-84
2023/07/28 15:10:12;;;;;;;2.15;0.55;;;27.50;69.60;;;;;;6191518;23;20451;-82
2023/07/28 15:12:39;;;;;;;1.52;0.40;;;27.60;70.50;;;;;;6207852;23;20032;-83
2023/07/28 15:15:09;;;;;;;1.90;0.40;;;27.60;69.90;;;;;;6183609;23;20091;-84
2023/07/28 15:17:36;;;;;;;0.95;0.50;;;27.60;69.20;;;;;;6208727;23;20020;-81
2023/07/28 15:20:04;;;;;;;1.55;0.57;;;27.60;69.80;;;;;;6203247;23;20325;-82
2023/07/28 15:22:32;;;;;;;1.00;0.73;;;27.60;70.20;;;;;;6203047;23;20601;-85
2023/07/28 15:25:00;;;;;;;2.45;0.60;;;27.50;67.80;;;;;;6180821;23;20391;-83
2023/07/28 15:27:27;;;;;;;1.35;0.30;;;27.60;68.50;;;;;;6181584;23;20027;-84
2023/07/28 15:29:54;;;;;;;1.60;0.50;;;27.50;68.20;;;;;;6207616;23;20151;-83
2023/07/28 15:32:21;;;;;;;1.35;0.50;;;27.50;68.90;;;;;;6206627;23;20130;-83
2023/07/28 15:34:48;;;;;;;1.75;0.80;;;27.50;69.60;;;;;;6182307;23;20531;-81
2023/07/28 15:37:16;;;;;;;3.17;0.40;;;27.50;70.00;;;;;;6181050;23;20110;-84
2023/07/28 15:39:43;;;;;;;0.95;0.40;;;27.50;69.40;;;;;;6178349;23;20368;-82
2023/07/28 15:42:10;;;;;;;1.52;0.55;;;27.60;68.70;;;;;;6206749;23;20421;-80
2023/07/28 15:44:37;;;;;;;2.33;0.73;;;27.50;69.00;;;;;;6208618;23;20503;-83
2023/07/28 15:47:04;;;;;;;3.88;0.50;;;27.50;69.60;;;;;;6186361;23;20047;-84
2023/07/28 15:49:31;;;;;;;2.08;0.88;;;27.50;70.30;;;;;;6209185;23;20073;-83
2023/07/28 15:51:58;;;;;;;2.88;0.93;;;27.50;69.50;;;;;;6181562;23;20031;-83
2023/07/28 15:54:26;;;;;;;3.33;0.95;;;27.50;69.40;;;;;;6205982;23;20020;-83
2023/07/28 15:56:53;;;;;;;2.92;0.65;;;27.40;69.90;;;;;;6179506;23;20082;-84
2023/07/28 15:59:20;;;;;;;1.75;0.70;;;27.40;70.10;;;;;;6202784;23;20022;-82
2023/07/28 16:01:48;;;;;;;9.52;1.42;;;27.40;70.30;;;;;;6207809;23;20031;-85
2023/07/28 16:04:16;;;;;;;1.00;0.30;;;27.30;70.80;;;;;;6185097;23;20031;-83
2023/07/28 16:06:44;;;;;;;1.10;0.60;;;27.40;71.50;;;;;;6217653;23;20016;-80
2023/07/28 16:09:12;;;;;;;1.02;0.50;;;27.40;72.00;;;;;;6215744;23;20078;-83
2023/07/28 16:11:42;;;;;;;2.30;0.70;;;27.40;71.20;;;;;;6206250;23;20028;-82
2023/07/28 16:14:10;;;;;;;1.60;0.50;;;27.40;71.20;;;;;;6212776;23;20028;-84
2023/07/28 16:16:37;;;;;;;4.70;2.00;;;27.40;71.70;;;;;;6193413;23;20047;-83
2023/07/28 16:19:06;;;;;;;7.25;2.13;;;27.40;71.80;;;;;;6216641;23;20024;-82
2023/07/28 16:21:33;;;;;;;9.20;4.30;;;27.30;72.30;;;;;;6208275;23;20028;-81
2023/07/28 16:24:01;;;;;;;7.75;4.68;;;27.20;72.30;;;;;;6178666;23;20123;-84
2023/07/28 16:26:28;;;;;;;3.53;1.33;;;27.00;72.60;;;;;;6210216;23;20027;-84
2023/07/28 16:28:55;;;;;;;1.42;0.80;;;26.90;72.80;;;;;;6209754;23;20103;-83
2023/07/28 16:31:22;;;;;;;0.90;0.40;;;26.80;73.10;;;;;;6190754;23;20043;-84
2023/07/28 16:33:49;;;;;;;2.78;0.40;;;26.80;73.10;;;;;;6244090;23;20020;-85